AEN838 EDDH-EGPH
Flight info
| Callsign | AEN838 |
|---|---|
| Flight time | 1h 19m |
| Altitude | 36000 |
| Route | ELSOB3C ELSOB L619 OSTOR DCT OMIMA DCT VALBO DCT ROPAL DCT DIGBI DCT AGPED |
| Aircraft | A321/M-SDE3FGHIRWY/LB1 |
Departure
| Time | 2026-04-21 13:41 |
|---|---|
| Airport | Hamburg Helmut Schmidt Airport (EDDH) |
Arrival
| Time | 2026-04-21 15:00 |
|---|---|
| Airport | Edinburgh Airport (EGPH) |
| Time | Latitude | Longitude | Altitude | Speed | Heading |
|---|---|---|---|---|---|
| 2026-04-21 13:04 | 53.63206 | 10.00357 | 49 ft | 0 kts | 86° |
| 2026-04-21 13:34 | 53.63205 | 10.00340 | 48 ft | 4 kts | 86° |
| 2026-04-21 13:34 | 53.63203 | 10.00299 | 48 ft | 2 kts | 86° |
| 2026-04-21 13:34 | 53.63204 | 10.00263 | 47 ft | 4 kts | 124° |
| 2026-04-21 13:34 | 53.63221 | 10.00246 | 43 ft | 3 kts | 176° |
| 2026-04-21 13:35 | 53.63238 | 10.00244 | 45 ft | 0 kts | 176° |
| 2026-04-21 13:38 | 53.63227 | 10.00245 | 48 ft | 2 kts | 176° |
| 2026-04-21 13:38 | 53.63205 | 10.00248 | 48 ft | 4 kts | 176° |
| 2026-04-21 13:38 | 53.63172 | 10.00252 | 48 ft | 5 kts | 176° |
| 2026-04-21 13:39 | 53.63129 | 10.00257 | 48 ft | 7 kts | 175° |
| 2026-04-21 13:39 | 53.63068 | 10.00257 | 48 ft | 10 kts | 194° |
| 2026-04-21 13:39 | 53.62999 | 10.00188 | 48 ft | 13 kts | 213° |
| 2026-04-21 13:39 | 53.62915 | 10.00095 | 48 ft | 15 kts | 213° |
| 2026-04-21 13:40 | 53.62845 | 9.99959 | 45 ft | 17 kts | 243° |
| 2026-04-21 13:40 | 53.62820 | 9.99790 | 45 ft | 13 kts | 307° |
| 2026-04-21 13:40 | 53.62906 | 9.99713 | 45 ft | 16 kts | 333° |
| 2026-04-21 13:40 | 53.63148 | 9.99505 | 45 ft | 74 kts | 333° |
| 2026-04-21 13:41 | 53.63817 | 9.98929 | 46 ft | 139 kts | 336° |
| 2026-04-21 13:41 | 53.64754 | 9.98036 | 382 ft | 155 kts | 334° |
| 2026-04-21 13:41 | 53.65683 | 9.97123 | 1117 ft | 157 kts | 335° |
| 2026-04-21 13:41 | 53.66652 | 9.96255 | 1865 ft | 160 kts | 339° |
| 2026-04-21 13:42 | 53.67709 | 9.95395 | 2394 ft | 179 kts | 339° |
| 2026-04-21 13:42 | 53.68903 | 9.94436 | 2821 ft | 201 kts | 338° |
| 2026-04-21 13:42 | 53.70205 | 9.93372 | 3246 ft | 213 kts | 337° |
| 2026-04-21 13:42 | 53.71324 | 9.91672 | 3810 ft | 228 kts | 298° |
| 2026-04-21 13:43 | 53.71601 | 9.88981 | 4285 ft | 247 kts | 266° |
| 2026-04-21 13:43 | 53.71224 | 9.86032 | 4559 ft | 271 kts | 252° |
| 2026-04-21 13:43 | 53.70571 | 9.82991 | 5201 ft | 280 kts | 248° |
| 2026-04-21 13:43 | 53.69844 | 9.79918 | 5980 ft | 284 kts | 248° |
| 2026-04-21 13:44 | 53.69116 | 9.76803 | 6787 ft | 287 kts | 249° |
| 2026-04-21 13:44 | 53.68410 | 9.73628 | 7567 ft | 291 kts | 250° |
| 2026-04-21 13:44 | 53.67725 | 9.70396 | 8324 ft | 295 kts | 250° |
| 2026-04-21 13:44 | 53.67055 | 9.67109 | 9083 ft | 298 kts | 251° |
| 2026-04-21 13:45 | 53.66390 | 9.63771 | 9808 ft | 303 kts | 252° |
| 2026-04-21 13:45 | 53.65982 | 9.60277 | 10488 ft | 307 kts | 268° |
| 2026-04-21 13:45 | 53.66139 | 9.56681 | 11093 ft | 312 kts | 283° |
| 2026-04-21 13:45 | 53.66870 | 9.53134 | 11246 ft | 330 kts | 301° |
| 2026-04-21 13:46 | 53.68044 | 9.49672 | 11369 ft | 350 kts | 303° |
| 2026-04-21 13:46 | 53.69299 | 9.46023 | 11578 ft | 367 kts | 303° |
| 2026-04-21 13:46 | 53.70590 | 9.42253 | 12093 ft | 373 kts | 302° |
| 2026-04-21 13:46 | 53.71888 | 9.38429 | 12704 ft | 377 kts | 302° |
| 2026-04-21 13:47 | 53.73191 | 9.34558 | 13328 ft | 381 kts | 302° |
| 2026-04-21 13:47 | 53.74503 | 9.30637 | 13947 ft | 385 kts | 302° |
| 2026-04-21 13:47 | 53.75821 | 9.26680 | 14518 ft | 388 kts | 302° |
| 2026-04-21 13:47 | 53.77152 | 9.22683 | 15057 ft | 392 kts | 302° |
| 2026-04-21 13:48 | 53.78496 | 9.18650 | 15599 ft | 395 kts | 302° |
| 2026-04-21 13:48 | 53.79850 | 9.14590 | 16150 ft | 398 kts | 302° |
| 2026-04-21 13:48 | 53.81217 | 9.10487 | 16695 ft | 401 kts | 302° |
| 2026-04-21 13:48 | 53.82612 | 9.06373 | 17230 ft | 404 kts | 305° |
| 2026-04-21 13:49 | 53.84297 | 9.02572 | 17756 ft | 404 kts | 314° |
| 2026-04-21 13:49 | 53.86132 | 8.98945 | 18266 ft | 407 kts | 314° |
| 2026-04-21 13:49 | 53.87981 | 8.95289 | 18754 ft | 410 kts | 313° |
| 2026-04-21 13:49 | 53.89840 | 8.91597 | 19189 ft | 413 kts | 313° |
| 2026-04-21 13:50 | 53.91707 | 8.87875 | 19614 ft | 416 kts | 313° |
| 2026-04-21 13:50 | 53.93588 | 8.84114 | 20037 ft | 419 kts | 313° |
| 2026-04-21 13:50 | 53.95480 | 8.80321 | 20464 ft | 423 kts | 313° |
| 2026-04-21 13:50 | 53.97385 | 8.76495 | 20887 ft | 426 kts | 313° |
| 2026-04-21 13:51 | 53.99304 | 8.72644 | 21308 ft | 429 kts | 313° |
| 2026-04-21 13:51 | 54.01236 | 8.68765 | 21727 ft | 432 kts | 313° |
| 2026-04-21 13:51 | 54.03185 | 8.64851 | 22145 ft | 435 kts | 313° |
| 2026-04-21 13:51 | 54.05144 | 8.60911 | 22561 ft | 438 kts | 313° |
| 2026-04-21 13:52 | 54.07113 | 8.56939 | 22971 ft | 441 kts | 313° |
| 2026-04-21 13:52 | 54.09093 | 8.52928 | 23368 ft | 444 kts | 313° |
| 2026-04-21 13:52 | 54.11082 | 8.48886 | 23766 ft | 447 kts | 313° |
| 2026-04-21 13:52 | 54.13086 | 8.44808 | 24125 ft | 450 kts | 313° |
| 2026-04-21 13:53 | 54.15099 | 8.40711 | 24449 ft | 453 kts | 313° |
| 2026-04-21 13:53 | 54.17129 | 8.36578 | 24779 ft | 455 kts | 313° |
| 2026-04-21 13:53 | 54.19164 | 8.32428 | 25109 ft | 458 kts | 313° |
| 2026-04-21 13:53 | 54.21215 | 8.28238 | 25437 ft | 461 kts | 313° |
| 2026-04-21 13:54 | 54.23273 | 8.24024 | 25755 ft | 463 kts | 313° |
| 2026-04-21 13:54 | 54.25343 | 8.19777 | 26076 ft | 466 kts | 313° |
| 2026-04-21 13:54 | 54.27424 | 8.15504 | 26398 ft | 469 kts | 313° |
| 2026-04-21 13:54 | 54.29514 | 8.11204 | 26708 ft | 471 kts | 313° |
| 2026-04-21 13:55 | 54.31616 | 8.06870 | 27016 ft | 474 kts | 312° |
| 2026-04-21 13:55 | 54.33724 | 8.02509 | 27320 ft | 477 kts | 312° |
| 2026-04-21 13:55 | 54.35846 | 7.98118 | 27617 ft | 479 kts | 312° |
| 2026-04-21 13:55 | 54.37979 | 7.93704 | 27906 ft | 482 kts | 312° |
| 2026-04-21 13:56 | 54.40124 | 7.89261 | 28188 ft | 484 kts | 312° |
| 2026-04-21 13:56 | 54.42271 | 7.84798 | 28454 ft | 487 kts | 312° |
| 2026-04-21 13:56 | 54.44431 | 7.80297 | 28704 ft | 489 kts | 312° |
| 2026-04-21 13:56 | 54.46596 | 7.75775 | 28957 ft | 491 kts | 312° |
| 2026-04-21 13:57 | 54.48769 | 7.71223 | 29181 ft | 493 kts | 311° |
| 2026-04-21 13:57 | 54.50940 | 7.66661 | 29538 ft | 493 kts | 311° |
| 2026-04-21 13:57 | 54.53108 | 7.62095 | 29877 ft | 492 kts | 311° |
| 2026-04-21 13:57 | 54.55276 | 7.57529 | 30208 ft | 492 kts | 311° |
| 2026-04-21 13:58 | 54.57443 | 7.52967 | 30537 ft | 492 kts | 311° |
| 2026-04-21 13:58 | 54.59609 | 7.48405 | 30814 ft | 492 kts | 311° |
| 2026-04-21 13:58 | 54.61775 | 7.43836 | 31118 ft | 491 kts | 311° |
| 2026-04-21 13:58 | 54.63927 | 7.39280 | 31433 ft | 489 kts | 311° |
| 2026-04-21 13:59 | 54.66074 | 7.34726 | 31741 ft | 488 kts | 311° |
| 2026-04-21 13:59 | 54.68212 | 7.30180 | 32058 ft | 487 kts | 311° |
| 2026-04-21 13:59 | 54.70342 | 7.25639 | 32368 ft | 485 kts | 311° |
| 2026-04-21 13:59 | 54.72463 | 7.21111 | 32682 ft | 484 kts | 311° |
| 2026-04-21 14:00 | 54.74579 | 7.16583 | 32991 ft | 483 kts | 311° |
| 2026-04-21 14:00 | 54.76683 | 7.12066 | 33307 ft | 481 kts | 311° |
| 2026-04-21 14:00 | 54.78780 | 7.07555 | 33616 ft | 480 kts | 311° |
| 2026-04-21 14:00 | 54.80871 | 7.03054 | 33922 ft | 479 kts | 311° |
| 2026-04-21 14:01 | 54.82959 | 6.98558 | 34229 ft | 477 kts | 310° |
| 2026-04-21 14:01 | 54.85037 | 6.94078 | 34506 ft | 476 kts | 310° |
| 2026-04-21 14:01 | 54.87107 | 6.89605 | 34752 ft | 475 kts | 310° |
| 2026-04-21 14:01 | 54.89173 | 6.85133 | 34982 ft | 474 kts | 310° |
| 2026-04-21 14:02 | 54.90566 | 6.82115 | 35131 ft | 473 kts | 310° |
| 2026-04-21 14:02 | 54.93286 | 6.76215 | 35432 ft | 472 kts | 310° |
| 2026-04-21 14:02 | 54.95331 | 6.71759 | 35645 ft | 471 kts | 310° |
| 2026-04-21 14:03 | 54.98496 | 6.63968 | 35998 ft | 472 kts | 299° |
| 2026-04-21 14:03 | 54.99834 | 6.58760 | 36208 ft | 472 kts | 290° |
| 2026-04-21 14:03 | 55.00702 | 6.53246 | 36382 ft | 473 kts | 281° |
| 2026-04-21 14:04 | 55.01681 | 6.41930 | 36446 ft | 472 kts | 278° |
| 2026-04-21 14:04 | 55.02636 | 6.30604 | 36451 ft | 472 kts | 278° |
| 2026-04-21 14:05 | 55.03588 | 6.19301 | 36446 ft | 471 kts | 278° |
| 2026-04-21 14:05 | 55.04527 | 6.07990 | 36449 ft | 471 kts | 278° |
| 2026-04-21 14:06 | 55.05448 | 5.96691 | 36453 ft | 471 kts | 278° |
| 2026-04-21 14:06 | 55.06352 | 5.85375 | 36460 ft | 471 kts | 278° |
| 2026-04-21 14:07 | 55.07249 | 5.74055 | 36466 ft | 471 kts | 278° |
| 2026-04-21 14:07 | 55.08144 | 5.62726 | 36471 ft | 471 kts | 278° |
| 2026-04-21 14:08 | 55.09031 | 5.51404 | 36474 ft | 471 kts | 278° |
| 2026-04-21 14:08 | 55.09901 | 5.40085 | 36484 ft | 470 kts | 278° |
| 2026-04-21 14:09 | 55.10758 | 5.28758 | 36477 ft | 470 kts | 278° |
| 2026-04-21 14:09 | 55.11603 | 5.17445 | 36484 ft | 470 kts | 278° |
| 2026-04-21 14:10 | 55.12438 | 5.06118 | 36486 ft | 470 kts | 277° |
| 2026-04-21 14:10 | 55.12953 | 4.94756 | 36486 ft | 470 kts | 271° |
| 2026-04-21 14:11 | 55.13082 | 4.83351 | 36485 ft | 469 kts | 271° |
| 2026-04-21 14:11 | 55.13212 | 4.71947 | 36485 ft | 469 kts | 271° |
| 2026-04-21 14:12 | 55.13332 | 4.60560 | 36484 ft | 469 kts | 271° |
| 2026-04-21 14:12 | 55.13440 | 4.49171 | 36486 ft | 468 kts | 271° |
| 2026-04-21 14:13 | 55.13540 | 4.37796 | 36482 ft | 468 kts | 271° |
| 2026-04-21 14:13 | 55.13629 | 4.26434 | 36486 ft | 468 kts | 271° |
| 2026-04-21 14:14 | 55.13701 | 4.15061 | 36488 ft | 468 kts | 271° |
| 2026-04-21 14:14 | 55.13760 | 4.03700 | 36490 ft | 467 kts | 270° |
| 2026-04-21 14:15 | 55.13810 | 3.92344 | 36494 ft | 467 kts | 271° |
| 2026-04-21 14:15 | 55.14076 | 3.81014 | 36497 ft | 467 kts | 274° |
| 2026-04-21 14:16 | 55.14485 | 3.69694 | 36499 ft | 466 kts | 274° |
| 2026-04-21 14:16 | 55.14846 | 3.58385 | 36500 ft | 466 kts | 273° |
| 2026-04-21 14:17 | 55.15138 | 3.47072 | 36500 ft | 466 kts | 273° |
| 2026-04-21 14:17 | 55.15419 | 3.35759 | 36503 ft | 466 kts | 273° |
| 2026-04-21 14:18 | 55.15694 | 3.24448 | 36504 ft | 465 kts | 273° |
| 2026-04-21 14:18 | 55.15958 | 3.13139 | 36504 ft | 465 kts | 272° |
| 2026-04-21 14:19 | 55.16213 | 3.01834 | 36509 ft | 465 kts | 272° |
| 2026-04-21 14:19 | 55.16462 | 2.90529 | 36507 ft | 465 kts | 272° |
| 2026-04-21 14:20 | 55.16697 | 2.79228 | 36510 ft | 465 kts | 272° |
| 2026-04-21 14:20 | 55.16925 | 2.67916 | 36511 ft | 465 kts | 272° |
| 2026-04-21 14:21 | 55.17145 | 2.56604 | 36511 ft | 465 kts | 272° |
| 2026-04-21 14:21 | 55.17349 | 2.45295 | 36509 ft | 465 kts | 272° |
| 2026-04-21 14:22 | 55.17541 | 2.33977 | 36514 ft | 465 kts | 272° |
| 2026-04-21 14:22 | 55.17718 | 2.22655 | 36518 ft | 465 kts | 272° |
| 2026-04-21 14:23 | 55.17891 | 2.11336 | 36519 ft | 465 kts | 272° |
| 2026-04-21 14:23 | 55.18065 | 2.00023 | 36518 ft | 465 kts | 272° |
| 2026-04-21 14:24 | 55.18215 | 1.88706 | 36524 ft | 465 kts | 272° |
| 2026-04-21 14:24 | 55.18348 | 1.77311 | 36522 ft | 465 kts | 271° |
| 2026-04-21 14:25 | 55.18481 | 1.66004 | 36522 ft | 465 kts | 271° |
| 2026-04-21 14:25 | 55.18601 | 1.54775 | 36524 ft | 464 kts | 271° |
| 2026-04-21 14:26 | 55.18712 | 1.43421 | 36524 ft | 464 kts | 271° |
| 2026-04-21 14:26 | 55.18817 | 1.32211 | 36526 ft | 463 kts | 271° |
| 2026-04-21 14:27 | 55.18910 | 1.20877 | 36525 ft | 462 kts | 271° |
| 2026-04-21 14:27 | 55.18984 | 1.09635 | 36526 ft | 462 kts | 271° |
| 2026-04-21 14:28 | 55.19047 | 0.98402 | 36532 ft | 461 kts | 271° |
| 2026-04-21 14:28 | 55.19111 | 0.87174 | 36534 ft | 461 kts | 271° |
| 2026-04-21 14:29 | 55.19158 | 0.75967 | 36533 ft | 460 kts | 271° |
| 2026-04-21 14:29 | 55.19199 | 0.64775 | 36538 ft | 460 kts | 271° |
| 2026-04-21 14:30 | 55.19224 | 0.53592 | 36535 ft | 459 kts | 271° |
| 2026-04-21 14:30 | 55.19235 | 0.42415 | 36537 ft | 459 kts | 270° |
| 2026-04-21 14:31 | 55.19236 | 0.31270 | 36538 ft | 458 kts | 270° |
| 2026-04-21 14:31 | 55.19235 | 0.20126 | 36543 ft | 458 kts | 270° |
| 2026-04-21 14:32 | 55.19223 | 0.08981 | 36543 ft | 457 kts | 270° |
| 2026-04-21 14:32 | 55.19202 | -0.02142 | 36542 ft | 457 kts | 270° |
| 2026-04-21 14:33 | 55.19167 | -0.13265 | 36543 ft | 457 kts | 270° |
| 2026-04-21 14:33 | 55.19123 | -0.24374 | 36547 ft | 456 kts | 270° |
| 2026-04-21 14:34 | 55.19065 | -0.35475 | 36547 ft | 456 kts | 270° |
| 2026-04-21 14:34 | 55.18996 | -0.46568 | 36546 ft | 456 kts | 270° |
| 2026-04-21 14:35 | 55.18921 | -0.57649 | 36546 ft | 455 kts | 270° |
| 2026-04-21 14:35 | 55.18839 | -0.68727 | 36316 ft | 456 kts | 270° |
| 2026-04-21 14:35 | 55.18794 | -0.74271 | 35924 ft | 455 kts | 270° |
| 2026-04-21 14:36 | 55.18745 | -0.79796 | 35543 ft | 454 kts | 270° |
| 2026-04-21 14:36 | 55.18696 | -0.85316 | 35163 ft | 453 kts | 270° |
| 2026-04-21 14:36 | 55.18643 | -0.90824 | 34790 ft | 453 kts | 270° |
| 2026-04-21 14:36 | 55.18584 | -0.96333 | 34358 ft | 452 kts | 270° |
| 2026-04-21 14:37 | 55.18523 | -1.01835 | 33858 ft | 453 kts | 269° |
| 2026-04-21 14:37 | 55.18342 | -1.07342 | 33367 ft | 455 kts | 264° |
| 2026-04-21 14:37 | 55.17973 | -1.12845 | 32886 ft | 457 kts | 264° |
| 2026-04-21 14:37 | 55.17599 | -1.18368 | 32411 ft | 459 kts | 263° |
| 2026-04-21 14:38 | 55.17222 | -1.23926 | 31950 ft | 461 kts | 263° |
| 2026-04-21 14:38 | 55.16843 | -1.29494 | 31488 ft | 462 kts | 263° |
| 2026-04-21 14:38 | 55.16462 | -1.35092 | 31042 ft | 464 kts | 263° |
| 2026-04-21 14:38 | 55.16078 | -1.40692 | 30598 ft | 465 kts | 262° |
| 2026-04-21 14:39 | 55.15688 | -1.46318 | 30068 ft | 467 kts | 262° |
| 2026-04-21 14:39 | 55.15290 | -1.51958 | 29554 ft | 468 kts | 262° |
| 2026-04-21 14:39 | 55.14886 | -1.57611 | 29040 ft | 469 kts | 262° |
| 2026-04-21 14:39 | 55.14479 | -1.63264 | 28593 ft | 468 kts | 262° |
| 2026-04-21 14:40 | 55.14077 | -1.68895 | 28135 ft | 466 kts | 262° |
| 2026-04-21 14:40 | 55.13810 | -1.72612 | 27833 ft | 466 kts | 262° |
| 2026-04-21 14:40 | 55.13406 | -1.78234 | 27395 ft | 467 kts | 262° |
| 2026-04-21 14:40 | 55.13001 | -1.83871 | 27027 ft | 468 kts | 262° |
| 2026-04-21 14:41 | 55.12859 | -1.89552 | 26663 ft | 470 kts | 272° |
| 2026-04-21 14:41 | 55.13279 | -1.95219 | 26238 ft | 471 kts | 282° |
| 2026-04-21 14:41 | 55.14256 | -2.00655 | 25702 ft | 468 kts | 293° |
| 2026-04-21 14:41 | 55.15738 | -2.05699 | 25052 ft | 465 kts | 301° |
| 2026-04-21 14:42 | 55.17358 | -2.10574 | 24368 ft | 462 kts | 301° |
| 2026-04-21 14:42 | 55.18960 | -2.15424 | 23596 ft | 458 kts | 301° |
| 2026-04-21 14:42 | 55.20538 | -2.20230 | 22939 ft | 454 kts | 301° |
| 2026-04-21 14:42 | 55.22101 | -2.25012 | 22277 ft | 450 kts | 301° |
| 2026-04-21 14:43 | 55.23645 | -2.29756 | 21622 ft | 446 kts | 301° |
| 2026-04-21 14:43 | 55.25171 | -2.34453 | 20969 ft | 442 kts | 301° |
| 2026-04-21 14:43 | 55.26703 | -2.39170 | 20315 ft | 438 kts | 301° |
| 2026-04-21 14:43 | 55.28202 | -2.43791 | 19675 ft | 433 kts | 301° |
| 2026-04-21 14:44 | 55.29686 | -2.48367 | 19042 ft | 430 kts | 301° |
| 2026-04-21 14:44 | 55.31155 | -2.52900 | 18372 ft | 426 kts | 301° |
| 2026-04-21 14:44 | 55.32613 | -2.57403 | 17759 ft | 423 kts | 301° |
| 2026-04-21 14:44 | 55.34058 | -2.61876 | 17132 ft | 420 kts | 301° |
| 2026-04-21 14:45 | 55.35490 | -2.66324 | 16528 ft | 417 kts | 301° |
| 2026-04-21 14:45 | 55.36909 | -2.70738 | 15955 ft | 411 kts | 301° |
| 2026-04-21 14:45 | 55.38284 | -2.75022 | 15801 ft | 392 kts | 301° |
| 2026-04-21 14:45 | 55.39575 | -2.79067 | 15667 ft | 366 kts | 301° |
| 2026-04-21 14:46 | 55.40763 | -2.82802 | 15534 ft | 343 kts | 301° |
| 2026-04-21 14:46 | 55.41912 | -2.86424 | 15195 ft | 329 kts | 301° |
| 2026-04-21 14:46 | 55.43021 | -2.89913 | 14656 ft | 324 kts | 301° |
| 2026-04-21 14:46 | 55.44116 | -2.93353 | 14373 ft | 322 kts | 301° |
| 2026-04-21 14:47 | 55.45215 | -2.96804 | 14214 ft | 324 kts | 301° |
| 2026-04-21 14:47 | 55.46317 | -3.00268 | 14063 ft | 324 kts | 301° |
| 2026-04-21 14:47 | 55.47428 | -3.03739 | 13601 ft | 325 kts | 301° |
| 2026-04-21 14:47 | 55.48541 | -3.07190 | 13188 ft | 323 kts | 301° |
| 2026-04-21 14:48 | 55.49650 | -3.10613 | 12797 ft | 320 kts | 301° |
| 2026-04-21 14:48 | 55.50750 | -3.14005 | 12391 ft | 318 kts | 301° |
| 2026-04-21 14:48 | 55.51841 | -3.17379 | 12004 ft | 316 kts | 301° |
| 2026-04-21 14:48 | 55.52923 | -3.20738 | 11615 ft | 314 kts | 301° |
| 2026-04-21 14:49 | 55.53996 | -3.24084 | 11220 ft | 313 kts | 300° |
| 2026-04-21 14:49 | 55.55063 | -3.27418 | 10836 ft | 311 kts | 300° |
| 2026-04-21 14:49 | 55.56126 | -3.30736 | 10453 ft | 310 kts | 300° |
| 2026-04-21 14:49 | 55.57185 | -3.34044 | 10038 ft | 308 kts | 300° |
| 2026-04-21 14:50 | 55.58235 | -3.37332 | 9654 ft | 306 kts | 300° |
| 2026-04-21 14:50 | 55.59276 | -3.40596 | 9271 ft | 304 kts | 300° |
| 2026-04-21 14:50 | 55.60307 | -3.43839 | 8896 ft | 302 kts | 300° |
| 2026-04-21 14:50 | 55.61331 | -3.47070 | 8520 ft | 300 kts | 300° |
| 2026-04-21 14:51 | 55.62353 | -3.50282 | 8150 ft | 299 kts | 301° |
| 2026-04-21 14:51 | 55.63368 | -3.53479 | 7768 ft | 297 kts | 301° |
| 2026-04-21 14:51 | 55.64409 | -3.56612 | 7522 ft | 292 kts | 309° |
| 2026-04-21 14:51 | 55.65854 | -3.59106 | 7524 ft | 292 kts | 323° |
| 2026-04-21 14:52 | 55.67433 | -3.61400 | 7212 ft | 298 kts | 323° |
| 2026-04-21 14:52 | 55.69060 | -3.63758 | 6379 ft | 305 kts | 323° |
| 2026-04-21 14:52 | 55.70694 | -3.66130 | 5694 ft | 298 kts | 323° |
| 2026-04-21 14:52 | 55.72251 | -3.68400 | 5363 ft | 285 kts | 323° |
| 2026-04-21 14:53 | 55.73773 | -3.70616 | 5093 ft | 277 kts | 324° |
| 2026-04-21 14:53 | 55.75215 | -3.72717 | 5010 ft | 263 kts | 323° |
| 2026-04-21 14:53 | 55.76545 | -3.74840 | 4893 ft | 253 kts | 319° |
| 2026-04-21 14:53 | 55.77842 | -3.76903 | 4778 ft | 247 kts | 333° |
| 2026-04-21 14:54 | 55.79414 | -3.77780 | 4678 ft | 233 kts | 6° |
| 2026-04-21 14:54 | 55.80922 | -3.77113 | 4591 ft | 220 kts | 36° |
| 2026-04-21 14:54 | 55.81991 | -3.75295 | 4508 ft | 210 kts | 61° |
| 2026-04-21 14:54 | 55.82760 | -3.73059 | 4354 ft | 212 kts | 62° |
| 2026-04-21 14:55 | 55.83524 | -3.70833 | 4147 ft | 210 kts | 62° |
| 2026-04-21 14:55 | 55.84277 | -3.68644 | 4038 ft | 203 kts | 62° |
| 2026-04-21 14:55 | 55.84999 | -3.66544 | 3812 ft | 196 kts | 62° |
| 2026-04-21 14:55 | 55.85699 | -3.64504 | 3569 ft | 191 kts | 61° |
| 2026-04-21 14:56 | 55.86386 | -3.62501 | 3298 ft | 188 kts | 62° |
| 2026-04-21 14:56 | 55.87065 | -3.60518 | 3043 ft | 187 kts | 61° |
| 2026-04-21 14:56 | 55.87739 | -3.58551 | 2794 ft | 187 kts | 61° |
| 2026-04-21 14:56 | 55.88413 | -3.56582 | 2522 ft | 183 kts | 61° |
| 2026-04-21 14:57 | 55.89057 | -3.54698 | 2267 ft | 174 kts | 60° |
| 2026-04-21 14:57 | 55.89669 | -3.52910 | 2052 ft | 165 kts | 61° |
| 2026-04-21 14:57 | 55.90257 | -3.51185 | 1822 ft | 158 kts | 61° |
| 2026-04-21 14:57 | 55.90797 | -3.49607 | 1603 ft | 142 kts | 62° |
| 2026-04-21 14:58 | 55.91292 | -3.48158 | 1417 ft | 133 kts | 61° |
| 2026-04-21 14:58 | 55.91766 | -3.46767 | 1208 ft | 129 kts | 63° |
| 2026-04-21 14:58 | 55.92229 | -3.45398 | 1048 ft | 129 kts | 62° |
| 2026-04-21 14:58 | 55.92695 | -3.44027 | 848 ft | 129 kts | 60° |
| 2026-04-21 14:59 | 55.93165 | -3.42660 | 670 ft | 129 kts | 60° |
| 2026-04-21 14:59 | 55.93626 | -3.41297 | 474 ft | 129 kts | 60° |
| 2026-04-21 14:59 | 55.94086 | -3.39940 | 315 ft | 128 kts | 61° |
| 2026-04-21 14:59 | 55.94546 | -3.38588 | 157 ft | 127 kts | 60° |
| 2026-04-21 15:00 | 55.94973 | -3.37329 | 112 ft | 103 kts | 58° |
| 2026-04-21 15:00 | 55.95278 | -3.36427 | 111 ft | 70 kts | 59° |
| 2026-04-21 15:00 | 55.95484 | -3.35820 | 112 ft | 44 kts | 59° |
| 2026-04-21 15:00 | 55.95562 | -3.35583 | 113 ft | 17 kts | 68° |
| 2026-04-21 15:01 | 55.95504 | -3.35442 | 114 ft | 15 kts | 150° |
| 2026-04-21 15:01 | 55.95420 | -3.35439 | 113 ft | 14 kts | 237° |
| 2026-04-21 15:01 | 55.95367 | -3.35594 | 116 ft | 15 kts | 238° |
| 2026-04-21 15:01 | 55.95308 | -3.35767 | 115 ft | 17 kts | 239° |
| 2026-04-21 15:02 | 55.95245 | -3.35956 | 115 ft | 19 kts | 238° |
| 2026-04-21 15:02 | 55.95178 | -3.36152 | 113 ft | 18 kts | 239° |
| 2026-04-21 15:02 | 55.95115 | -3.36341 | 114 ft | 17 kts | 239° |
| 2026-04-21 15:02 | 55.95023 | -3.36395 | 113 ft | 15 kts | 202° |
| 2026-04-21 15:03 | 55.94964 | -3.36483 | 114 ft | 7 kts | 153° |
| 2026-04-21 15:03 | 55.94933 | -3.36444 | 114 ft | 2 kts | 148° |
| 2026-04-21 15:03 | 55.94924 | -3.36434 | 113 ft | 0 kts | 148° |